sensor_id;sensor_type;location;lat;lon;timestamp;pressure;altitude;pressure_sealevel;temperature;humidity
61870;BME280;47810;42.264;23.826;2024-02-15T00:01:25;94080.94;;;3.71;75.06
61870;BME280;47810;42.264;23.826;2024-02-15T00:07:36;94077.94;;;3.82;74.46
61870;BME280;47810;42.264;23.826;2024-02-15T00:10:03;94066.06;;;3.73;75.09
61870;BME280;47810;42.264;23.826;2024-02-15T00:12:35;94076.19;;;3.82;74.55
61870;BME280;47810;42.264;23.826;2024-02-15T00:15:10;94075.38;;;3.80;74.89
61870;BME280;47810;42.264;23.826;2024-02-15T00:17:37;94070.97;;;3.82;75.03
61870;BME280;47810;42.264;23.826;2024-02-15T00:20:06;94082.03;;;3.89;74.21
61870;BME280;47810;42.264;23.826;2024-02-15T00:22:46;94075.94;;;3.88;73.33
61870;BME280;47810;42.264;23.826;2024-02-15T00:25:21;94075.72;;;3.94;72.20
61870;BME280;47810;42.264;23.826;2024-02-15T00:27:49;94077.44;;;3.95;71.15
61870;BME280;47810;42.264;23.826;2024-02-15T00:30:15;94071.31;;;3.96;71.81
61870;BME280;47810;42.264;23.826;2024-02-15T00:32:44;94070.38;;;3.97;70.64
61870;BME280;47810;42.264;23.826;2024-02-15T00:35:26;94070.38;;;3.97;70.19
61870;BME280;47810;42.264;23.826;2024-02-15T00:37:58;94067.84;;;3.96;70.53
61870;BME280;47810;42.264;23.826;2024-02-15T00:40:31;94066.78;;;4.02;70.69
61870;BME280;47810;42.264;23.826;2024-02-15T00:43:03;94075.47;;;4.02;70.78
61870;BME280;47810;42.264;23.826;2024-02-15T00:45:35;94083.34;;;4.01;71.33
61870;BME280;47810;42.264;23.826;2024-02-15T00:48:03;94077.84;;;4.08;71.50
61870;BME280;47810;42.264;23.826;2024-02-15T00:50:41;94078.94;;;4.03;72.08
61870;BME280;47810;42.264;23.826;2024-02-15T00:53:14;94072.34;;;3.92;72.08
61870;BME280;47810;42.264;23.826;2024-02-15T00:55:45;94075.72;;;3.94;71.75
61870;BME280;47810;42.264;23.826;2024-02-15T00:58:13;94074.34;;;3.84;72.92
61870;BME280;47810;42.264;23.826;2024-02-15T01:00:40;94075.09;;;3.88;73.12
61870;BME280;47810;42.264;23.826;2024-02-15T01:03:22;94072.47;;;3.88;73.57
61870;BME280;47810;42.264;23.826;2024-02-15T01:05:50;94071.97;;;3.78;74.20
61870;BME280;47810;42.264;23.826;2024-02-15T01:08:30;94075.00;;;3.66;74.40
61870;BME280;47810;42.264;23.826;2024-02-15T01:10:58;94062.88;;;3.65;74.15
61870;BME280;47810;42.264;23.826;2024-02-15T01:13:31;94063.69;;;3.67;73.94
61870;BME280;47810;42.264;23.826;2024-02-15T01:15:59;94066.19;;;3.70;73.75
61870;BME280;47810;42.264;23.826;2024-02-15T01:18:37;94067.25;;;3.64;73.44
61870;BME280;47810;42.264;23.826;2024-02-15T01:21:04;94073.31;;;3.65;73.79
61870;BME280;47810;42.264;23.826;2024-02-15T01:23:42;94067.34;;;3.61;74.05
61870;BME280;47810;42.264;23.826;2024-02-15T01:26:13;94065.22;;;3.47;75.35
61870;BME280;47810;42.264;23.826;2024-02-15T01:28:46;94072.97;;;3.24;76.73
61870;BME280;47810;42.264;23.826;2024-02-15T01:31:18;94078.00;;;3.30;77.09
61870;BME280;47810;42.264;23.826;2024-02-15T01:33:50;94078.28;;;3.21;76.64
61870;BME280;47810;42.264;23.826;2024-02-15T01:36:23;94073.03;;;3.22;76.97
61870;BME280;47810;42.264;23.826;2024-02-15T01:38:55;94075.59;;;3.24;76.60
61870;BME280;47810;42.264;23.826;2024-02-15T01:41:27;94069.28;;;3.31;76.44
61870;BME280;47810;42.264;23.826;2024-02-15T01:43:52;94077.88;;;3.33;76.13
61870;BME280;47810;42.264;23.826;2024-02-15T01:46:20;94076.41;;;3.26;76.62
61870;BME280;47810;42.264;23.826;2024-02-15T01:49:03;94083.56;;;3.19;77.44
61870;BME280;47810;42.264;23.826;2024-02-15T01:51:37;94080.53;;;3.07;77.43
61870;BME280;47810;42.264;23.826;2024-02-15T01:54:06;94076.91;;;3.11;78.10
61870;BME280;47810;42.264;23.826;2024-02-15T01:56:41;94080.69;;;3.27;77.36
61870;BME280;47810;42.264;23.826;2024-02-15T01:59:16;94079.72;;;3.31;76.46
61870;BME280;47810;42.264;23.826;2024-02-15T02:02:04;94079.72;;;3.31;76.04
61870;BME280;47810;42.264;23.826;2024-02-15T02:04:42;94083.66;;;3.18;76.15
61870;BME280;47810;42.264;23.826;2024-02-15T02:07:25;94089.44;;;3.26;76.42
61870;BME280;47810;42.264;23.826;2024-02-15T02:10:01;94085.03;;;3.28;76.74
61870;BME280;47810;42.264;23.826;2024-02-15T02:15:26;94078.81;;;3.32;76.20
61870;BME280;47810;42.264;23.826;2024-02-15T02:18:03;94086.94;;;3.23;75.69
61870;BME280;47810;42.264;23.826;2024-02-15T02:20:48;94092.69;;;3.33;75.63
61870;BME280;47810;42.264;23.826;2024-02-15T02:23:21;94089.13;;;3.35;75.13
61870;BME280;47810;42.264;23.826;2024-02-15T02:26:28;94083.31;;;3.27;75.77
61870;BME280;47810;42.264;23.826;2024-02-15T02:28:58;94078.97;;;3.28;75.67
61870;BME280;47810;42.264;23.826;2024-02-15T02:31:39;94087.53;;;3.31;75.39
61870;BME280;47810;42.264;23.826;2024-02-15T02:37:21;94094.56;;;3.29;75.10
61870;BME280;47810;42.264;23.826;2024-02-15T02:39:51;94101.38;;;3.33;75.09
61870;BME280;47810;42.264;23.826;2024-02-15T02:42:17;94095.28;;;3.34;75.11
61870;BME280;47810;42.264;23.826;2024-02-15T02:44:55;94099.78;;;3.29;73.99
61870;BME280;47810;42.264;23.826;2024-02-15T02:47:23;94102.78;;;3.17;75.09
61870;BME280;47810;42.264;23.826;2024-02-15T02:50:01;94107.16;;;2.90;74.98
61870;BME280;47810;42.264;23.826;2024-02-15T02:52:30;94100.72;;;2.45;76.62
61870;BME280;47810;42.264;23.826;2024-02-15T02:55:05;94114.34;;;2.53;77.03
61870;BME280;47810;42.264;23.826;2024-02-15T02:57:38;94105.84;;;2.48;77.36
61870;BME280;47810;42.264;23.826;2024-02-15T03:00:06;94117.22;;;2.74;76.21
61870;BME280;47810;42.264;23.826;2024-02-15T03:02:53;94113.50;;;2.81;75.84
61870;BME280;47810;42.264;23.826;2024-02-15T03:11:46;94116.09;;;2.53;75.50
61870;BME280;47810;42.264;23.826;2024-02-15T03:14:26;94116.88;;;2.56;75.58
61870;BME280;47810;42.264;23.826;2024-02-15T03:17:13;94122.16;;;2.53;77.09
61870;BME280;47810;42.264;23.826;2024-02-15T03:19:46;94106.44;;;2.56;76.98
61870;BME280;47810;42.264;23.826;2024-02-15T03:22:40;94114.56;;;2.47;76.20
61870;BME280;47810;42.264;23.826;2024-02-15T03:25:16;94118.88;;;2.48;76.99
61870;BME280;47810;42.264;23.826;2024-02-15T03:27:51;94113.50;;;2.53;77.44
61870;BME280;47810;42.264;23.826;2024-02-15T03:30:26;94120.81;;;2.70;76.01
61870;BME280;47810;42.264;23.826;2024-02-15T03:33:04;94124.28;;;2.70;76.33
61870;BME280;47810;42.264;23.826;2024-02-15T03:35:39;94123.53;;;2.67;76.60
61870;BME280;47810;42.264;23.826;2024-02-15T03:38:38;94122.44;;;2.74;77.01
61870;BME280;47810;42.264;23.826;2024-02-15T03:41:12;94120.22;;;2.88;77.10
61870;BME280;47810;42.264;23.826;2024-02-15T03:43:40;94115.53;;;2.73;76.37
61870;BME280;47810;42.264;23.826;2024-02-15T03:46:20;94120.34;;;2.57;76.90
61870;BME280;47810;42.264;23.826;2024-02-15T03:48:46;94120.19;;;2.62;76.48
61870;BME280;47810;42.264;23.826;2024-02-15T03:51:17;94122.94;;;2.85;76.32
61870;BME280;47810;42.264;23.826;2024-02-15T03:53:50;94119.53;;;2.83;75.87
61870;BME280;47810;42.264;23.826;2024-02-15T03:56:21;94121.13;;;2.87;76.30
61870;BME280;47810;42.264;23.826;2024-02-15T03:59:00;94124.75;;;2.83;76.63
61870;BME280;47810;42.264;23.826;2024-02-15T04:01:36;94118.38;;;2.36;77.10
61870;BME280;47810;42.264;23.826;2024-02-15T04:04:04;94118.56;;;2.29;77.91
61870;BME280;47810;42.264;23.826;2024-02-15T04:06:50;94122.75;;;2.35;78.23
61870;BME280;47810;42.264;23.826;2024-02-15T04:12:56;94126.63;;;2.78;77.82
61870;BME280;47810;42.264;23.826;2024-02-15T04:15:30;94123.91;;;2.83;76.88
61870;BME280;47810;42.264;23.826;2024-02-15T04:17:59;94123.13;;;2.79;77.51
61870;BME280;47810;42.264;23.826;2024-02-15T04:20:27;94114.41;;;2.80;78.19
61870;BME280;47810;42.264;23.826;2024-02-15T04:26:08;94109.13;;;2.82;76.63
61870;BME280;47810;42.264;23.826;2024-02-15T04:28:49;94121.84;;;2.92;76.17
61870;BME280;47810;42.264;23.826;2024-02-15T04:31:25;94122.53;;;2.97;76.30
61870;BME280;47810;42.264;23.826;2024-02-15T04:34:03;94123.50;;;2.95;76.34
61870;BME280;47810;42.264;23.826;2024-02-15T04:36:36;94129.00;;;2.86;76.57
61870;BME280;47810;42.264;23.826;2024-02-15T04:39:08;94129.47;;;2.98;75.79
61870;BME280;47810;42.264;23.826;2024-02-15T04:41:41;94129.97;;;2.83;75.45
61870;BME280;47810;42.264;23.826;2024-02-15T04:44:13;94124.94;;;2.77;75.12
61870;BME280;47810;42.264;23.826;2024-02-15T04:46:47;94124.09;;;2.76;75.63
61870;BME280;47810;42.264;23.826;2024-02-15T04:52:48;94135.22;;;2.82;75.31
61870;BME280;47810;42.264;23.826;2024-02-15T05:14:42;94156.94;;;2.52;76.35
61870;BME280;47810;42.264;23.826;2024-02-15T05:17:16;94167.38;;;2.52;76.14
61870;BME280;47810;42.264;23.826;2024-02-15T05:19:47;94173.13;;;2.34;77.11
61870;BME280;47810;42.264;23.826;2024-02-15T05:22:20;94163.59;;;2.03;77.24
61870;BME280;47810;42.264;23.826;2024-02-15T05:24:54;94178.22;;;2.07;77.76
61870;BME280;47810;42.264;23.826;2024-02-15T05:27:25;94164.69;;;2.26;77.26
61870;BME280;47810;42.264;23.826;2024-02-15T05:29:57;94181.47;;;2.16;78.30
61870;BME280;47810;42.264;23.826;2024-02-15T05:32:36;94175.34;;;2.17;78.22
61870;BME280;47810;42.264;23.826;2024-02-15T05:42:15;94183.91;;;2.22;77.64
61870;BME280;47810;42.264;23.826;2024-02-15T05:51:08;94188.84;;;2.31;77.83
61870;BME280;47810;42.264;23.826;2024-02-15T05:53:38;94202.00;;;2.58;76.70
61870;BME280;47810;42.264;23.826;2024-02-15T05:59:48;94201.31;;;2.20;79.10
61870;BME280;47810;42.264;23.826;2024-02-15T06:02:42;94204.47;;;2.31;78.71
61870;BME280;47810;42.264;23.826;2024-02-15T06:05:30;94205.44;;;2.58;77.72
61870;BME280;47810;42.264;23.826;2024-02-15T06:08:02;94208.13;;;2.55;78.20
61870;BME280;47810;42.264;23.826;2024-02-15T06:10:34;94200.25;;;2.56;77.43
61870;BME280;47810;42.264;23.826;2024-02-15T06:13:10;94195.06;;;2.56;77.66
61870;BME280;47810;42.264;23.826;2024-02-15T06:15:37;94202.19;;;2.50;77.48
61870;BME280;47810;42.264;23.826;2024-02-15T06:18:05;94204.38;;;2.65;77.42
61870;BME280;47810;42.264;23.826;2024-02-15T06:20:45;94205.63;;;2.82;77.65
61870;BME280;47810;42.264;23.826;2024-02-15T06:23:17;94211.00;;;2.75;78.05
61870;BME280;47810;42.264;23.826;2024-02-15T06:25:50;94213.25;;;2.88;77.41
61870;BME280;47810;42.264;23.826;2024-02-15T06:28:22;94216.72;;;2.88;77.49
61870;BME280;47810;42.264;23.826;2024-02-15T06:31:26;94212.03;;;2.99;77.29
61870;BME280;47810;42.264;23.826;2024-02-15T06:34:20;94216.72;;;2.88;77.21
61870;BME280;47810;42.264;23.826;2024-02-15T06:40:39;94215.53;;;2.98;77.10
61870;BME280;47810;42.264;23.826;2024-02-15T06:43:06;94217.38;;;2.95;77.31
61870;BME280;47810;42.264;23.826;2024-02-15T06:46:07;94226.09;;;2.94;77.76
61870;BME280;47810;42.264;23.826;2024-02-15T06:48:44;94230.84;;;2.81;78.37
61870;BME280;47810;42.264;23.826;2024-02-15T06:51:13;94225.66;;;3.09;77.33
61870;BME280;47810;42.264;23.826;2024-02-15T06:53:44;94228.47;;;3.01;77.60
61870;BME280;47810;42.264;23.826;2024-02-15T06:56:17;94230.06;;;3.07;77.90
61870;BME280;47810;42.264;23.826;2024-02-15T06:58:49;94229.84;;;3.15;76.86
61870;BME280;47810;42.264;23.826;2024-02-15T07:01:25;94229.88;;;3.13;76.68
61870;BME280;47810;42.264;23.826;2024-02-15T07:03:52;94226.97;;;3.22;76.08
61870;BME280;47810;42.264;23.826;2024-02-15T07:06:25;94237.22;;;3.29;75.81
61870;BME280;47810;42.264;23.826;2024-02-15T07:08:57;94228.00;;;3.17;76.25
61870;BME280;47810;42.264;23.826;2024-02-15T07:11:23;94231.53;;;3.16;76.00
61870;BME280;47810;42.264;23.826;2024-02-15T07:13:50;94234.06;;;3.17;76.16
61870;BME280;47810;42.264;23.826;2024-02-15T07:16:31;94228.09;;;3.14;76.98
61870;BME280;47810;42.264;23.826;2024-02-15T07:19:05;94229.75;;;3.18;76.15
61870;BME280;47810;42.264;23.826;2024-02-15T07:21:38;94231.53;;;3.16;77.42
61870;BME280;47810;42.264;23.826;2024-02-15T07:24:09;94228.66;;;3.23;76.85
61870;BME280;47810;42.264;23.826;2024-02-15T07:26:40;94237.06;;;3.33;75.71
61870;BME280;47810;42.264;23.826;2024-02-15T07:29:13;94236.22;;;3.33;75.77
61870;BME280;47810;42.264;23.826;2024-02-15T07:31:44;94248.16;;;3.40;75.43
61870;BME280;47810;42.264;23.826;2024-02-15T07:34:18;94243.50;;;3.49;75.04
61870;BME280;47810;42.264;23.826;2024-02-15T07:36:46;94243.19;;;3.60;74.24
61870;BME280;47810;42.264;23.826;2024-02-15T07:39:24;94244.84;;;3.63;73.62
61870;BME280;47810;42.264;23.826;2024-02-15T07:41:54;94251.34;;;3.49;73.03
61870;BME280;47810;42.264;23.826;2024-02-15T07:44:26;94240.50;;;3.35;74.61
61870;BME280;47810;42.264;23.826;2024-02-15T07:46:59;94252.88;;;3.57;73.29
61870;BME280;47810;42.264;23.826;2024-02-15T07:49:32;94246.66;;;3.59;73.07
61870;BME280;47810;42.264;23.826;2024-02-15T07:51:59;94253.34;;;3.69;72.33
61870;BME280;47810;42.264;23.826;2024-02-15T07:54:36;94247.84;;;3.77;71.90
61870;BME280;47810;42.264;23.826;2024-02-15T07:57:04;94241.53;;;3.56;72.70
61870;BME280;47810;42.264;23.826;2024-02-15T07:59:40;94237.31;;;3.54;73.19
61870;BME280;47810;42.264;23.826;2024-02-15T08:02:12;94243.19;;;3.60;73.15
61870;BME280;47810;42.264;23.826;2024-02-15T08:04:45;94238.75;;;3.89;72.55
61870;BME280;47810;42.264;23.826;2024-02-15T08:07:17;94244.72;;;3.92;71.86
61870;BME280;47810;42.264;23.826;2024-02-15T08:09:51;94246.13;;;4.03;71.92
61870;BME280;47810;42.264;23.826;2024-02-15T08:12:22;94243.97;;;4.14;70.25
61870;BME280;47810;42.264;23.826;2024-02-15T08:14:48;94242.28;;;4.13;70.30
61870;BME280;47810;42.264;23.826;2024-02-15T08:17:26;94243.78;;;4.20;69.78
61870;BME280;47810;42.264;23.826;2024-02-15T08:20:01;94249.63;;;4.27;69.78
61870;BME280;47810;42.264;23.826;2024-02-15T08:22:33;94243.13;;;4.38;70.94
61870;BME280;47810;42.264;23.826;2024-02-15T08:25:12;94237.59;;;4.48;69.27
61870;BME280;47810;42.264;23.826;2024-02-15T08:37:46;94235.09;;;5.15;67.32
61870;BME280;47810;42.264;23.826;2024-02-15T08:40:17;94235.69;;;5.22;67.82
61870;BME280;47810;42.264;23.826;2024-02-15T08:42:50;94239.25;;;5.43;65.91
61870;BME280;47810;42.264;23.826;2024-02-15T08:45:22;94240.94;;;5.22;66.39
61870;BME280;47810;42.264;23.826;2024-02-15T08:47:56;94229.72;;;5.18;66.27
61870;BME280;47810;42.264;23.826;2024-02-15T08:50:24;94228.41;;;5.30;65.30
61870;BME280;47810;42.264;23.826;2024-02-15T08:53:00;94232.88;;;5.26;65.58
61870;BME280;47810;42.264;23.826;2024-02-15T08:55:32;94228.91;;;5.40;66.30
61870;BME280;47810;42.264;23.826;2024-02-15T08:57:57;94217.56;;;5.39;66.69
61870;BME280;47810;42.264;23.826;2024-02-15T09:00:26;94215.31;;;5.52;64.70
61870;BME280;47810;42.264;23.826;2024-02-15T09:03:10;94220.53;;;5.52;66.05
61870;BME280;47810;42.264;23.826;2024-02-15T09:05:42;94209.31;;;5.70;64.95
61870;BME280;47810;42.264;23.826;2024-02-15T09:08:08;94219.16;;;5.65;64.56
61870;BME280;47810;42.264;23.826;2024-02-15T09:10:49;94219.44;;;5.79;66.40
61870;BME280;47810;42.264;23.826;2024-02-15T09:13:19;94217.28;;;5.89;64.59
61870;BME280;47810;42.264;23.826;2024-02-15T09:15:51;94216.22;;;5.95;63.94
61870;BME280;47810;42.264;23.826;2024-02-15T09:18:18;94212.53;;;5.99;63.96
61870;BME280;47810;42.264;23.826;2024-02-15T09:20:46;94217.53;;;6.05;64.13
61870;BME280;47810;42.264;23.826;2024-02-15T09:23:28;94211.44;;;6.25;63.03
61870;BME280;47810;42.264;23.826;2024-02-15T09:26:01;94204.69;;;6.19;63.69
61870;BME280;47810;42.264;23.826;2024-02-15T09:28:32;94219.63;;;6.38;62.68
61870;BME280;47810;42.264;23.826;2024-02-15T09:31:07;94213.13;;;6.46;62.57
61870;BME280;47810;42.264;23.826;2024-02-15T09:33:37;94202.13;;;6.38;62.03
61870;BME280;47810;42.264;23.826;2024-02-15T09:36:15;94194.44;;;6.54;62.69
61870;BME280;47810;42.264;23.826;2024-02-15T09:38:44;94203.97;;;6.75;61.81
61870;BME280;47810;42.264;23.826;2024-02-15T09:41:15;94203.84;;;6.79;60.99
61870;BME280;47810;42.264;23.826;2024-02-15T09:43:43;94190.22;;;7.08;62.79
61870;BME280;47810;42.264;23.826;2024-02-15T09:46:10;94195.34;;;7.47;61.14
61870;BME280;47810;42.264;23.826;2024-02-15T09:48:36;94185.31;;;7.92;61.80
61870;BME280;47810;42.264;23.826;2024-02-15T09:51:08;94184.91;;;8.34;57.07
61870;BME280;47810;42.264;23.826;2024-02-15T09:53:56;94183.22;;;8.33;57.82
61870;BME280;47810;42.264;23.826;2024-02-15T09:56:30;94187.50;;;8.19;57.01
61870;BME280;47810;42.264;23.826;2024-02-15T09:59:02;94182.66;;;7.92;55.97
61870;BME280;47810;42.264;23.826;2024-02-15T10:01:34;94170.78;;;7.85;55.81
61870;BME280;47810;42.264;23.826;2024-02-15T10:04:08;94171.56;;;7.87;57.06
61870;BME280;47810;42.264;23.826;2024-02-15T10:06:38;94174.50;;;7.81;56.55
61870;BME280;47810;42.264;23.826;2024-02-15T10:09:37;94163.03;;;7.64;56.48
61870;BME280;47810;42.264;23.826;2024-02-15T10:18:20;94157.81;;;7.45;56.53
61870;BME280;47810;42.264;23.826;2024-02-15T10:24:25;94145.09;;;7.73;56.35
61870;BME280;47810;42.264;23.826;2024-02-15T10:27:01;94148.81;;;8.38;54.65
61870;BME280;47810;42.264;23.826;2024-02-15T10:33:06;94135.63;;;8.55;51.91
61870;BME280;47810;42.264;23.826;2024-02-15T10:35:33;94132.25;;;8.69;52.65
61870;BME280;47810;42.264;23.826;2024-02-15T10:38:11;94127.69;;;9.04;51.00
61870;BME280;47810;42.264;23.826;2024-02-15T10:43:57;94120.38;;;10.01;47.11
61870;BME280;47810;42.264;23.826;2024-02-15T10:46:43;94112.88;;;10.10;47.05
61870;BME280;47810;42.264;23.826;2024-02-15T10:52:21;94105.22;;;10.78;48.81
61870;BME280;47810;42.264;23.826;2024-02-15T10:55:14;94110.97;;;10.85;48.33
61870;BME280;47810;42.264;23.826;2024-02-15T10:57:48;94108.81;;;10.77;46.95
61870;BME280;47810;42.264;23.826;2024-02-15T11:04:05;94107.06;;;10.19;47.24
61870;BME280;47810;42.264;23.826;2024-02-15T11:06:36;94104.00;;;10.55;48.77
61870;BME280;47810;42.264;23.826;2024-02-15T11:09:10;94101.59;;;11.49;47.94
61870;BME280;47810;42.264;23.826;2024-02-15T11:11:54;94099.19;;;11.05;45.23
61870;BME280;47810;42.264;23.826;2024-02-15T11:14:46;94103.00;;;10.43;46.07
61870;BME280;47810;42.264;23.826;2024-02-15T11:17:47;94083.53;;;10.30;48.39
61870;BME280;47810;42.264;23.826;2024-02-15T11:20:51;94087.47;;;10.94;46.39
61870;BME280;47810;42.264;23.826;2024-02-15T11:23:51;94082.97;;;10.82;45.60
61870;BME280;47810;42.264;23.826;2024-02-15T11:26:42;94070.13;;;11.05;44.56
61870;BME280;47810;42.264;23.826;2024-02-15T11:32:51;94070.19;;;11.45;44.55
61870;BME280;47810;42.264;23.826;2024-02-15T11:35:34;94069.63;;;11.39;43.86
61870;BME280;47810;42.264;23.826;2024-02-15T11:38:03;94061.50;;;11.82;44.05
61870;BME280;47810;42.264;23.826;2024-02-15T11:41:08;94065.59;;;12.01;45.06
61870;BME280;47810;42.264;23.826;2024-02-15T11:46:58;94064.25;;;11.00;46.71
61870;BME280;47810;42.264;23.826;2024-02-15T11:53:23;94058.84;;;11.42;47.40
61870;BME280;47810;42.264;23.826;2024-02-15T11:55:49;94054.22;;;11.19;44.31
61870;BME280;47810;42.264;23.826;2024-02-15T11:58:22;94052.31;;;11.48;44.75
61870;BME280;47810;42.264;23.826;2024-02-15T12:01:00;94056.84;;;11.19;44.82
61870;BME280;47810;42.264;23.826;2024-02-15T12:04:12;94060.53;;;10.61;46.27
61870;BME280;47810;42.264;23.826;2024-02-15T12:10:35;94050.81;;;10.18;46.47
61870;BME280;47810;42.264;23.826;2024-02-15T12:20:07;94040.19;;;10.48;46.56
61870;BME280;47810;42.264;23.826;2024-02-15T12:23:02;94039.38;;;9.89;48.52
61870;BME280;47810;42.264;23.826;2024-02-15T12:25:37;94050.38;;;9.51;51.55
61870;BME280;47810;42.264;23.826;2024-02-15T12:28:16;94052.00;;;9.54;49.72
61870;BME280;47810;42.264;23.826;2024-02-15T12:34:10;94060.69;;;9.40;49.95
61870;BME280;47810;42.264;23.826;2024-02-15T12:37:06;94051.09;;;9.69;53.72
61870;BME280;47810;42.264;23.826;2024-02-15T12:42:49;94051.50;;;9.47;51.91
61870;BME280;47810;42.264;23.826;2024-02-15T12:49:06;94053.41;;;10.34;47.08
61870;BME280;47810;42.264;23.826;2024-02-15T12:51:33;94058.06;;;10.72;45.85
61870;BME280;47810;42.264;23.826;2024-02-15T12:54:22;94048.81;;;10.93;45.52
61870;BME280;47810;42.264;23.826;2024-02-15T12:56:48;94059.81;;;11.14;46.12
61870;BME280;47810;42.264;23.826;2024-02-15T12:59:19;94058.47;;;11.61;44.88
61870;BME280;47810;42.264;23.826;2024-02-15T13:01:54;94056.06;;;11.31;45.12
61870;BME280;47810;42.264;23.826;2024-02-15T13:04:24;94059.47;;;11.33;47.40
61870;BME280;47810;42.264;23.826;2024-02-15T13:06:57;94057.69;;;11.19;44.43
61870;BME280;47810;42.264;23.826;2024-02-15T13:09:24;94066.31;;;11.09;47.49
61870;BME280;47810;42.264;23.826;2024-02-15T13:12:03;94064.50;;;10.82;45.70
61870;BME280;47810;42.264;23.826;2024-02-15T13:14:34;94048.59;;;11.11;47.03
61870;BME280;47810;42.264;23.826;2024-02-15T13:17:06;94055.75;;;11.09;46.04
61870;BME280;47810;42.264;23.826;2024-02-15T13:26:52;94057.97;;;10.02;47.19
61870;BME280;47810;42.264;23.826;2024-02-15T13:32:22;94067.91;;;10.56;47.42
61870;BME280;47810;42.264;23.826;2024-02-15T13:34:53;94068.63;;;10.72;48.05
61870;BME280;47810;42.264;23.826;2024-02-15T13:37:26;94061.31;;;10.48;50.03
61870;BME280;47810;42.264;23.826;2024-02-15T13:47:01;94063.06;;;10.05;47.69
61870;BME280;47810;42.264;23.826;2024-02-15T13:49:47;94069.50;;;9.85;48.81
61870;BME280;47810;42.264;23.826;2024-02-15T13:52:25;94072.44;;;9.95;48.74
61870;BME280;47810;42.264;23.826;2024-02-15T13:55:12;94068.75;;;9.83;49.02
61870;BME280;47810;42.264;23.826;2024-02-15T13:57:40;94072.78;;;9.44;50.61
61870;BME280;47810;42.264;23.826;2024-02-15T14:00:20;94069.75;;;9.04;50.32
61870;BME280;47810;42.264;23.826;2024-02-15T14:05:22;94075.00;;;8.73;52.03
61870;BME280;47810;42.264;23.826;2024-02-15T14:07:58;94081.47;;;8.51;53.37
61870;BME280;47810;42.264;23.826;2024-02-15T14:10:29;94081.16;;;8.40;55.06
61870;BME280;47810;42.264;23.826;2024-02-15T14:13:01;94083.34;;;8.14;54.38
61870;BME280;47810;42.264;23.826;2024-02-15T14:15:33;94083.84;;;8.05;54.57
61870;BME280;47810;42.264;23.826;2024-02-15T14:18:11;94089.09;;;8.05;55.00
61870;BME280;47810;42.264;23.826;2024-02-15T14:20:42;94084.59;;;7.74;55.27
61870;BME280;47810;42.264;23.826;2024-02-15T14:23:11;94085.88;;;7.83;57.05
61870;BME280;47810;42.264;23.826;2024-02-15T14:26:00;94089.06;;;7.55;56.44
61870;BME280;47810;42.264;23.826;2024-02-15T14:28:46;94094.69;;;7.47;56.96
61870;BME280;47810;42.264;23.826;2024-02-15T14:31:17;94085.56;;;7.37;56.31
61870;BME280;47810;42.264;23.826;2024-02-15T14:34:18;94085.16;;;7.27;56.69
61870;BME280;47810;42.264;23.826;2024-02-15T14:39:49;94083.03;;;7.53;56.99
61870;BME280;47810;42.264;23.826;2024-02-15T14:42:21;94084.66;;;7.55;58.14
61870;BME280;47810;42.264;23.826;2024-02-15T14:44:47;94090.84;;;7.18;57.77
61870;BME280;47810;42.264;23.826;2024-02-15T14:51:06;94089.19;;;6.98;58.99
61870;BME280;47810;42.264;23.826;2024-02-15T14:53:39;94084.13;;;7.12;57.94
61870;BME280;47810;42.264;23.826;2024-02-15T14:56:07;94090.44;;;7.08;57.38
61870;BME280;47810;42.264;23.826;2024-02-15T14:58:45;94086.00;;;6.91;57.61
61870;BME280;47810;42.264;23.826;2024-02-15T15:01:17;94082.53;;;6.91;57.76
61870;BME280;47810;42.264;23.826;2024-02-15T15:04:05;94093.47;;;6.82;56.78
61870;BME280;47810;42.264;23.826;2024-02-15T15:16:05;94106.16;;;6.53;57.97
61870;BME280;47810;42.264;23.826;2024-02-15T15:18:33;94108.00;;;6.51;57.77
61870;BME280;47810;42.264;23.826;2024-02-15T15:21:03;94104.41;;;6.53;58.94
61870;BME280;47810;42.264;23.826;2024-02-15T15:23:39;94110.75;;;6.48;58.61
61870;BME280;47810;42.264;23.826;2024-02-15T15:26:27;94116.59;;;6.36;58.77
61870;BME280;47810;42.264;23.826;2024-02-15T15:29:13;94112.16;;;6.17;59.13
61870;BME280;47810;42.264;23.826;2024-02-15T15:41:51;94111.97;;;6.01;60.31
61870;BME280;47810;42.264;23.826;2024-02-15T15:44:30;94113.53;;;6.05;59.41
61870;BME280;47810;42.264;23.826;2024-02-15T15:47:01;94119.09;;;6.18;60.74
61870;BME280;47810;42.264;23.826;2024-02-15T15:49:32;94130.81;;;6.10;58.87
61870;BME280;47810;42.264;23.826;2024-02-15T15:52:07;94123.94;;;5.87;60.09
61870;BME280;47810;42.264;23.826;2024-02-15T15:54:35;94135.03;;;5.93;60.53
61870;BME280;47810;42.264;23.826;2024-02-15T15:57:07;94133.78;;;6.02;60.98
61870;BME280;47810;42.264;23.826;2024-02-15T15:59:35;94130.09;;;6.06;60.55
61870;BME280;47810;42.264;23.826;2024-02-15T16:02:01;94129.97;;;6.09;61.14
61870;BME280;47810;42.264;23.826;2024-02-15T16:04:50;94141.72;;;6.00;60.26
61870;BME280;47810;42.264;23.826;2024-02-15T16:10:36;94146.75;;;5.84;60.71
61870;BME280;47810;42.264;23.826;2024-02-15T16:13:02;94162.03;;;5.73;61.73
61870;BME280;47810;42.264;23.826;2024-02-15T16:16:06;94155.75;;;5.77;61.81
61870;BME280;47810;42.264;23.826;2024-02-15T16:19:11;94166.31;;;5.55;62.36
61870;BME280;47810;42.264;23.826;2024-02-15T16:21:45;94166.22;;;5.57;62.76
61870;BME280;47810;42.264;23.826;2024-02-15T16:24:40;94172.69;;;5.26;63.90
61870;BME280;47810;42.264;23.826;2024-02-15T16:27:07;94178.13;;;5.22;64.03
61870;BME280;47810;42.264;23.826;2024-02-15T16:29:41;94184.31;;;5.19;64.62
61870;BME280;47810;42.264;23.826;2024-02-15T16:32:12;94182.91;;;4.88;65.61
61870;BME280;47810;42.264;23.826;2024-02-15T16:34:59;94192.44;;;4.89;65.47
61870;BME280;47810;42.264;23.826;2024-02-15T16:37:40;94185.34;;;4.93;65.00
61870;BME280;47810;42.264;23.826;2024-02-15T16:40:27;94187.72;;;4.99;64.50
61870;BME280;47810;42.264;23.826;2024-02-15T16:42:59;94198.06;;;5.02;64.15